createdAt,value
2018-03-06T00:01:40.454Z,6.87
2018-03-06T00:03:41.805Z,6.89
2018-03-06T00:05:43.217Z,6.89
2018-03-06T00:07:44.725Z,6.87
2018-03-06T00:09:46.139Z,6.79
2018-03-06T00:11:51.320Z,6.77
2018-03-06T00:13:52.727Z,6.76
2018-03-06T00:15:54.124Z,6.73
2018-03-06T00:17:55.535Z,6.71
2018-03-06T00:19:56.941Z,6.73
2018-03-06T00:21:58.347Z,6.77
2018-03-06T00:23:59.756Z,6.63
2018-03-06T00:26:01.198Z,6.65
2018-03-06T00:28:02.599Z,6.62
2018-03-06T00:30:04.018Z,6.62
2018-03-06T00:32:05.422Z,6.62
2018-03-06T00:34:06.830Z,6.53
2018-03-06T00:36:08.233Z,6.58
2018-03-06T00:38:09.638Z,6.48
2018-03-06T00:40:11.136Z,6.48
2018-03-06T00:42:12.532Z,6.50
2018-03-06T00:44:16.589Z,6.51
2018-03-06T00:46:17.996Z,6.54
2018-03-06T00:48:19.403Z,6.47
2018-03-06T00:50:20.809Z,6.54
2018-03-06T00:52:22.216Z,6.47
2018-03-06T00:54:23.621Z,6.51
2018-03-06T00:56:25.066Z,6.47
2018-03-06T00:58:26.434Z,6.33
2018-03-06T01:00:27.839Z,6.35
2018-03-06T01:02:29.246Z,6.33
2018-03-06T01:04:30.656Z,6.40
2018-03-06T01:06:32.054Z,6.30
2018-03-06T01:08:33.463Z,6.30
2018-03-06T01:10:34.926Z,6.26
2018-03-06T01:12:36.332Z,6.28
2018-03-06T01:14:37.789Z,6.11
2018-03-06T01:16:39.205Z,6.13
2018-03-06T01:18:40.618Z,6.11
2018-03-06T01:20:42.111Z,6.16
2018-03-06T01:22:43.505Z,6.11
2018-03-06T01:24:45.049Z,6.11
2018-03-06T01:26:46.458Z,6.06
2018-03-06T01:28:47.906Z,6.07
2018-03-06T01:30:49.365Z,6.01
2018-03-06T01:32:50.781Z,6.03
2018-03-06T01:34:52.185Z,5.98
2018-03-06T01:36:53.590Z,5.91
2018-03-06T01:38:54.994Z,5.98
2018-03-06T01:40:56.402Z,6.01
2018-03-06T01:42:57.762Z,5.95
2018-03-06T01:44:59.168Z,5.91
2018-03-06T01:47:00.569Z,5.96
2018-03-06T01:49:01.977Z,5.85
2018-03-06T01:51:03.388Z,5.88
2018-03-06T01:53:04.784Z,5.88
2018-03-06T01:55:06.195Z,5.83
2018-03-06T01:57:07.614Z,5.75
2018-03-06T01:59:09.022Z,5.75
2018-03-06T02:01:10.425Z,5.75
2018-03-06T02:03:11.831Z,5.74
2018-03-06T02:05:13.258Z,5.73
2018-03-06T02:07:14.660Z,5.71
2018-03-06T02:09:16.081Z,5.75
2018-03-06T02:11:17.513Z,5.78
2018-03-06T02:13:18.907Z,5.77
2018-03-06T02:15:20.321Z,5.63
2018-03-06T02:17:21.729Z,5.66
2018-03-06T02:19:23.142Z,5.67
2018-03-06T02:21:24.709Z,5.55
2018-03-06T02:23:26.183Z,5.67
2018-03-06T02:25:27.649Z,5.53
2018-03-06T02:27:29.111Z,5.64
2018-03-06T02:29:30.517Z,5.64
2018-03-06T02:31:32.028Z,5.60
2018-03-06T02:33:33.446Z,5.60
2018-03-06T02:35:35.023Z,5.60
2018-03-06T02:37:36.565Z,5.59
2018-03-06T02:39:38.054Z,5.55
2018-03-06T02:41:39.495Z,5.52
2018-03-06T02:43:40.966Z,5.53
2018-03-06T02:45:42.447Z,5.52
2018-03-06T02:47:44.016Z,5.49
2018-03-06T02:49:45.618Z,5.40
2018-03-06T02:51:47.117Z,5.38
2018-03-06T02:53:48.810Z,5.46
2018-03-06T02:55:50.460Z,5.46
2018-03-06T02:57:52.151Z,5.37
2018-03-06T02:59:53.596Z,5.46
2018-03-06T03:01:55.003Z,5.43
2018-03-06T03:03:56.404Z,5.49
2018-03-06T03:05:57.809Z,5.46
2018-03-06T03:07:59.213Z,5.49
2018-03-06T03:10:00.620Z,5.50
2018-03-06T03:12:02.039Z,5.48
2018-03-06T03:14:03.458Z,5.55
2018-03-06T03:16:04.888Z,5.55
2018-03-06T03:18:06.297Z,5.48
2018-03-06T03:20:07.702Z,5.48
2018-03-06T03:22:09.104Z,5.50
2018-03-06T03:24:10.510Z,5.48
2018-03-06T03:26:11.914Z,5.34
2018-03-06T03:28:13.359Z,5.46
2018-03-06T03:30:14.744Z,5.37
2018-03-06T03:32:16.145Z,5.50
2018-03-06T03:34:17.553Z,5.40
2018-03-06T03:36:18.964Z,5.40
2018-03-06T03:38:20.359Z,5.40
2018-03-06T03:40:21.995Z,5.38
2018-03-06T03:42:23.366Z,5.30
2018-03-06T03:44:24.773Z,5.35
2018-03-06T03:46:26.174Z,5.34
2018-03-06T03:48:27.582Z,5.28
2018-03-06T03:50:28.984Z,5.31
2018-03-06T03:52:30.391Z,5.27
2018-03-06T03:54:31.799Z,5.40
2018-03-06T03:56:33.203Z,5.37
2018-03-06T03:58:34.607Z,5.25
2018-03-06T04:00:36.012Z,5.31
2018-03-06T04:02:37.477Z,5.31
2018-03-06T04:04:38.918Z,5.27
2018-03-06T04:06:40.348Z,5.17
2018-03-06T04:08:41.724Z,5.09
2018-03-06T04:10:43.128Z,5.14
2018-03-06T04:12:44.532Z,5.10
2018-03-06T04:14:45.935Z,5.13
2018-03-06T04:16:47.337Z,5.09
2018-03-06T04:18:48.740Z,5.10
2018-03-06T04:20:50.143Z,5.09
2018-03-06T04:22:51.547Z,4.98
2018-03-06T04:24:52.970Z,5.01
2018-03-06T04:26:54.373Z,5.01
2018-03-06T04:28:55.776Z,4.99
2018-03-06T04:30:57.179Z,5.01
2018-03-06T04:32:58.584Z,5.12
2018-03-06T04:35:00.002Z,5.10
2018-03-06T04:37:01.423Z,5.04
2018-03-06T04:39:02.824Z,5.09
2018-03-06T04:41:04.223Z,5.05
2018-03-06T04:43:05.646Z,5.07
2018-03-06T04:45:07.057Z,5.14
2018-03-06T04:47:08.464Z,5.07
2018-03-06T04:49:09.880Z,5.09
2018-03-06T04:51:11.285Z,5.10
2018-03-06T04:53:12.697Z,5.09
2018-03-06T04:55:14.105Z,5.10
2018-03-06T04:57:15.527Z,5.02
2018-03-06T04:59:16.926Z,4.98
2018-03-06T05:01:18.371Z,5.09
2018-03-06T05:03:19.734Z,4.94
2018-03-06T05:05:21.138Z,4.96
2018-03-06T05:07:22.544Z,4.94
2018-03-06T05:09:23.972Z,5.02
2018-03-06T05:11:25.390Z,5.09
2018-03-06T05:13:26.801Z,5.02
2018-03-06T05:15:28.199Z,5.05
2018-03-06T05:17:29.608Z,5.04
2018-03-06T05:19:31.030Z,5.01
2018-03-06T05:21:32.365Z,4.91
2018-03-06T05:23:33.772Z,5.05
2018-03-06T05:25:35.178Z,4.96
2018-03-06T05:27:36.593Z,5.07
2018-03-06T05:29:38.000Z,5.09
2018-03-06T05:31:39.431Z,5.01
2018-03-06T05:33:40.834Z,5.02
2018-03-06T05:35:42.237Z,5.10
2018-03-06T05:37:43.646Z,5.07
2018-03-06T05:39:45.040Z,5.12
2018-03-06T05:41:46.444Z,5.12
2018-03-06T05:43:47.882Z,5.07
2018-03-06T05:45:49.331Z,4.99
2018-03-06T05:47:50.738Z,4.92
2018-03-06T05:49:52.148Z,5.05
2018-03-06T05:51:53.551Z,5.04
2018-03-06T05:53:54.975Z,4.99
2018-03-06T05:55:56.379Z,5.10
2018-03-06T05:57:57.785Z,5.02
2018-03-06T06:00:40.227Z,5.09
2018-03-06T06:02:41.634Z,5.04
2018-03-06T06:04:43.039Z,5.09
2018-03-06T06:06:44.446Z,5.02
2018-03-06T06:08:45.852Z,5.07
2018-03-06T06:10:47.258Z,5.04
2018-03-06T06:12:48.663Z,4.98
2018-03-06T06:14:50.063Z,5.04
2018-03-06T06:16:51.478Z,5.07
2018-03-06T06:18:52.882Z,5.10
2018-03-06T06:20:54.285Z,5.13
2018-03-06T06:22:55.703Z,5.10
2018-03-06T06:24:57.109Z,5.13
2018-03-06T06:26:58.521Z,5.05
2018-03-06T06:28:59.928Z,5.05
2018-03-06T06:31:01.335Z,5.12
2018-03-06T06:33:02.745Z,5.09
2018-03-06T06:35:04.154Z,5.17
2018-03-06T06:37:05.563Z,5.23
2018-03-06T06:39:06.974Z,5.27
2018-03-06T06:41:08.381Z,5.32
2018-03-06T06:43:09.791Z,5.28
2018-03-06T06:45:11.203Z,5.32
2018-03-06T06:47:12.611Z,5.35
2018-03-06T06:49:14.019Z,5.45
2018-03-06T06:51:15.431Z,5.49
2018-03-06T06:53:16.873Z,5.38
2018-03-06T06:55:18.281Z,5.38
2018-03-06T06:57:19.690Z,5.45
2018-03-06T06:59:21.096Z,5.46
2018-03-06T07:01:22.509Z,5.32
2018-03-06T07:03:23.914Z,5.35
2018-03-06T07:05:25.319Z,5.45
2018-03-06T07:07:26.729Z,5.38
2018-03-06T07:09:28.150Z,5.28
2018-03-06T07:11:29.732Z,5.37
2018-03-06T07:13:31.142Z,5.48
2018-03-06T07:15:32.551Z,5.57
2018-03-06T07:17:33.962Z,5.57
2018-03-06T07:19:35.442Z,5.55
2018-03-06T07:21:36.847Z,5.60
2018-03-06T07:23:38.257Z,5.71
2018-03-06T07:25:39.681Z,5.56
2018-03-06T07:27:41.080Z,5.66
2018-03-06T07:29:42.524Z,5.66
2018-03-06T07:31:43.897Z,5.86
2018-03-06T07:33:45.302Z,5.77
2018-03-06T07:35:46.715Z,5.93
2018-03-06T07:37:48.124Z,5.98
2018-03-06T07:39:49.531Z,5.98
2018-03-06T07:41:50.986Z,6.32
2018-03-06T07:43:52.350Z,6.84
2018-03-06T07:45:53.761Z,7.37
2018-03-06T07:47:55.172Z,7.90
2018-03-06T07:49:56.587Z,8.53
2018-03-06T07:51:58.001Z,9.20
2018-03-06T07:53:59.415Z,8.99
2018-03-06T07:56:00.827Z,9.20
2018-03-06T07:58:02.241Z,9.67
2018-03-06T08:00:03.660Z,9.89
2018-03-06T08:02:05.075Z,10.33
2018-03-06T08:04:06.501Z,10.56
2018-03-06T08:06:07.909Z,11.10
2018-03-06T08:08:09.328Z,11.53
2018-03-06T08:10:10.742Z,12.05
2018-03-06T08:12:12.170Z,12.12
2018-03-06T08:14:13.580Z,12.16
2018-03-06T08:16:14.950Z,12.60
2018-03-06T08:18:16.375Z,13.41
2018-03-06T08:20:17.800Z,14.35
2018-03-06T08:22:19.224Z,14.50
2018-03-06T08:24:20.645Z,15.09
2018-03-06T08:26:22.075Z,14.06
2018-03-06T08:28:23.496Z,12.41
2018-03-06T08:30:24.917Z,12.15
2018-03-06T08:32:26.343Z,11.93
2018-03-06T08:34:27.765Z,11.89
2018-03-06T08:36:29.188Z,11.77
2018-03-06T08:38:30.611Z,11.46
2018-03-06T08:40:32.036Z,11.27
2018-03-06T08:42:33.456Z,11.01
2018-03-06T08:44:34.875Z,10.84
2018-03-06T08:46:36.298Z,10.65
2018-03-06T08:48:37.714Z,10.88
2018-03-06T08:50:39.135Z,10.98
2018-03-06T08:52:40.554Z,10.76
2018-03-06T08:54:41.976Z,10.59
2018-03-06T08:56:43.391Z,10.52
2018-03-06T08:58:44.811Z,10.60
2018-03-06T09:00:46.230Z,10.68
2018-03-06T09:02:47.650Z,10.77
2018-03-06T09:04:49.066Z,10.76
2018-03-06T09:06:50.488Z,10.62
2018-03-06T09:08:51.900Z,10.36
2018-03-06T09:10:53.315Z,10.26
2018-03-06T09:12:54.730Z,10.28
2018-03-06T09:14:56.144Z,10.14
2018-03-06T09:16:57.565Z,10.18
2018-03-06T09:18:58.978Z,9.96
2018-03-06T09:21:00.393Z,9.88
2018-03-06T09:23:01.820Z,9.91
2018-03-06T09:25:03.238Z,9.93
2018-03-06T09:27:04.655Z,9.73
2018-03-06T09:29:06.069Z,9.78
2018-03-06T09:31:07.484Z,9.99
2018-03-06T09:33:08.901Z,10.21
2018-03-06T09:35:10.317Z,10.40
2018-03-06T09:37:11.734Z,10.43
2018-03-06T09:39:13.151Z,10.58
2018-03-06T09:41:14.566Z,10.70
2018-03-06T09:43:15.989Z,10.88
2018-03-06T09:45:17.409Z,11.06
2018-03-06T09:47:18.820Z,11.19
2018-03-06T09:49:20.560Z,11.21
2018-03-06T09:51:21.986Z,11.10
2018-03-06T09:53:23.397Z,10.96
2018-03-06T09:55:24.816Z,11.10
2018-03-06T09:57:26.238Z,11.17
2018-03-06T09:59:27.655Z,11.34
2018-03-06T10:01:29.077Z,11.24
2018-03-06T10:03:30.493Z,11.25
2018-03-06T10:05:31.913Z,11.38
2018-03-06T10:07:33.347Z,11.39
2018-03-06T10:09:34.757Z,11.44
2018-03-06T10:11:37.007Z,11.39
2018-03-06T10:13:38.427Z,11.31
2018-03-06T10:15:39.849Z,11.39
2018-03-06T10:17:41.267Z,11.67
2018-03-06T10:19:42.686Z,11.59
2018-03-06T10:21:44.105Z,11.64
2018-03-06T10:23:45.524Z,11.59
2018-03-06T10:25:47.040Z,11.49
2018-03-06T10:27:48.456Z,11.36
2018-03-06T10:29:49.873Z,11.44
2018-03-06T10:31:51.311Z,11.41
2018-03-06T10:33:52.717Z,11.38
2018-03-06T10:35:54.134Z,11.28
2018-03-06T10:38:36.689Z,11.21
2018-03-06T10:40:38.211Z,11.38
2018-03-06T10:42:39.619Z,11.46
2018-03-06T10:44:41.042Z,11.43
2018-03-06T10:46:42.987Z,11.47
2018-03-06T10:48:44.402Z,11.68
2018-03-06T10:50:46.275Z,11.72
2018-03-06T10:52:48.194Z,11.89
2018-03-06T10:54:49.638Z,11.99
2018-03-06T10:56:51.075Z,11.87
2018-03-06T10:58:52.537Z,11.93
2018-03-06T11:00:54.522Z,12.12
2018-03-06T11:02:55.917Z,11.99
2018-03-06T11:04:57.328Z,12.06
2018-03-06T11:06:58.761Z,12.01
2018-03-06T11:09:00.217Z,11.99
2018-03-06T11:11:01.858Z,12.06
2018-03-06T11:13:03.533Z,12.05
2018-03-06T11:15:05.001Z,12.12
2018-03-06T11:17:06.543Z,12.16
2018-03-06T11:19:08.025Z,12.27
2018-03-06T11:21:09.440Z,12.29
2018-03-06T11:23:11.267Z,12.46
2018-03-06T11:25:13.299Z,12.39
2018-03-06T11:27:14.711Z,12.49
2018-03-06T11:29:16.159Z,12.70
2018-03-06T11:31:17.933Z,12.59
2018-03-06T11:33:19.576Z,12.30
2018-03-06T11:35:20.992Z,12.30
2018-03-06T11:37:22.773Z,12.42
2018-03-06T11:39:24.191Z,12.41
2018-03-06T11:41:26.557Z,12.34
2018-03-06T11:43:27.987Z,12.33
2018-03-06T11:45:29.411Z,12.57
2018-03-06T11:47:31.429Z,12.75
2018-03-06T11:49:33.393Z,12.97
2018-03-06T11:51:35.020Z,13.00
2018-03-06T11:53:36.759Z,12.93
2018-03-06T11:55:38.227Z,12.92
2018-03-06T11:57:40.398Z,12.87
2018-03-06T11:59:42.137Z,13.02
2018-03-06T12:01:44.176Z,13.17
2018-03-06T12:03:45.839Z,13.20
2018-03-06T12:05:47.533Z,13.22
2018-03-06T12:07:49.074Z,13.22
2018-03-06T12:09:50.574Z,13.30
2018-03-06T12:11:52.595Z,13.22
2018-03-06T12:13:54.404Z,13.15
2018-03-06T12:15:57.145Z,13.17
2018-03-06T12:17:58.844Z,13.20
2018-03-06T12:20:00.486Z,13.14
2018-03-06T12:22:02.728Z,13.15
2018-03-06T12:24:04.418Z,13.09
2018-03-06T12:26:06.132Z,12.95
2018-03-06T12:28:08.034Z,13.02
2018-03-06T12:30:09.599Z,13.22
2018-03-06T12:32:11.248Z,13.51
2018-03-06T12:34:12.778Z,13.40
2018-03-06T12:36:14.295Z,13.52
2018-03-06T12:38:15.745Z,13.59
2018-03-06T12:40:17.946Z,13.51
2018-03-06T12:42:19.716Z,13.71
2018-03-06T12:44:21.405Z,13.65
2018-03-06T12:46:23.107Z,13.69
2018-03-06T12:48:24.829Z,13.74
2018-03-06T12:50:26.452Z,13.70
2018-03-06T12:52:27.920Z,13.83
2018-03-06T12:54:29.344Z,14.02
2018-03-06T12:56:31.602Z,14.04
2018-03-06T12:58:33.162Z,13.94
2018-03-06T13:00:35.048Z,13.89
2018-03-06T13:02:36.936Z,13.95
2018-03-06T13:04:38.861Z,14.07
2018-03-06T13:06:40.519Z,14.09
2018-03-06T13:08:42.282Z,14.09
2018-03-06T13:10:43.953Z,14.07
2018-03-06T13:12:46.310Z,14.01
2018-03-06T13:14:48.276Z,14.04
2018-03-06T13:16:51.472Z,13.88
2018-03-06T13:18:53.057Z,13.70
2018-03-06T13:20:54.822Z,13.79
2018-03-06T13:22:56.682Z,13.77
2018-03-06T13:24:58.463Z,13.79
2018-03-06T13:27:00.196Z,13.88
2018-03-06T13:29:01.922Z,13.94
2018-03-06T13:31:04.173Z,13.96
2018-03-06T13:33:06.183Z,13.98
2018-03-06T13:35:07.992Z,14.04
2018-03-06T13:37:09.865Z,14.12
2018-03-06T13:39:11.984Z,14.10
2018-03-06T13:41:13.900Z,14.02
2018-03-06T13:43:15.683Z,14.06
2018-03-06T13:45:17.607Z,14.21
2018-03-06T13:47:19.257Z,14.06
2018-03-06T13:49:21.366Z,14.02
2018-03-06T13:51:23.207Z,14.06
2018-03-06T13:53:25.329Z,14.02
2018-03-06T13:55:27.199Z,14.02
2018-03-06T13:57:29.357Z,13.92
2018-03-06T13:59:31.092Z,14.09
2018-03-06T14:01:32.871Z,14.14
2018-03-06T14:03:34.665Z,14.17
2018-03-06T14:05:36.226Z,14.10
2018-03-06T14:07:38.310Z,14.19
2018-03-06T14:09:39.805Z,14.29
2018-03-06T14:11:41.448Z,14.29
2018-03-06T14:13:43.198Z,14.28
2018-03-06T14:15:45.133Z,14.31
2018-03-06T14:17:47.183Z,14.24
2018-03-06T14:19:48.880Z,14.16
2018-03-06T14:21:51.336Z,14.16
2018-03-06T14:23:53.030Z,13.99
2018-03-06T14:25:55.264Z,14.10
2018-03-06T14:27:56.995Z,14.20
2018-03-06T14:29:58.732Z,14.34
2018-03-06T14:32:00.386Z,14.19
2018-03-06T14:34:02.032Z,14.07
2018-03-06T14:36:03.896Z,13.99
2018-03-06T14:38:05.487Z,14.06
2018-03-06T14:40:06.980Z,14.07
2018-03-06T14:42:08.402Z,14.16
2018-03-06T14:44:09.830Z,14.31
2018-03-06T14:46:11.251Z,14.56
2018-03-06T14:48:12.676Z,14.72
2018-03-06T14:50:14.106Z,14.81
2018-03-06T14:52:15.726Z,14.88
2018-03-06T14:54:17.245Z,14.84
2018-03-06T14:56:19.070Z,14.83
2018-03-06T14:58:20.976Z,14.90
2018-03-06T15:00:22.754Z,14.95
2018-03-06T15:02:24.167Z,14.88
2018-03-06T15:04:25.648Z,14.78
2018-03-06T15:06:27.229Z,14.75
2018-03-06T15:08:28.950Z,14.91
2018-03-06T15:10:30.690Z,14.84
2018-03-06T15:12:32.115Z,14.75
2018-03-06T15:14:34.405Z,14.68
2018-03-06T15:16:35.932Z,14.69
2018-03-06T15:18:37.437Z,14.68
2018-03-06T15:20:38.994Z,14.88
2018-03-06T15:22:42.120Z,14.81
2018-03-06T15:24:43.824Z,14.83
2018-03-06T15:26:46.049Z,14.60
2018-03-06T15:28:47.597Z,14.69
2018-03-06T15:30:49.424Z,14.65
2018-03-06T15:32:51.484Z,14.47
2018-03-06T15:34:53.304Z,14.39
2018-03-06T15:36:54.970Z,14.35
2018-03-06T15:38:56.845Z,14.34
2018-03-06T15:40:58.326Z,14.28
2018-03-06T15:42:59.847Z,14.19
2018-03-06T15:45:01.865Z,14.20
2018-03-06T15:47:03.564Z,14.43
2018-03-06T15:49:05.164Z,14.46
2018-03-06T15:51:06.668Z,14.46
2018-03-06T15:53:08.081Z,14.52
2018-03-06T15:55:09.506Z,14.39
2018-03-06T15:57:10.933Z,14.50
2018-03-06T15:59:12.358Z,14.47
2018-03-06T16:01:13.812Z,14.38
2018-03-06T16:03:15.214Z,14.37
2018-03-06T16:05:16.642Z,14.34
2018-03-06T16:07:18.066Z,14.21
2018-03-06T16:09:19.493Z,14.10
2018-03-06T16:11:20.940Z,14.19
2018-03-06T16:13:22.361Z,14.27
2018-03-06T16:15:23.794Z,14.28
2018-03-06T16:17:25.220Z,14.27
2018-03-06T16:19:26.647Z,14.31
2018-03-06T16:21:28.616Z,14.34
2018-03-06T16:23:30.420Z,14.32
2018-03-06T16:25:32.434Z,14.31
2018-03-06T16:27:33.906Z,14.29
2018-03-06T16:29:35.488Z,14.20
2018-03-06T16:31:37.515Z,14.17
2018-03-06T16:33:39.220Z,14.21
2018-03-06T16:35:40.633Z,14.14
2018-03-06T16:37:42.132Z,14.02
2018-03-06T16:39:43.728Z,13.95
2018-03-06T16:41:45.383Z,13.95
2018-03-06T16:43:46.933Z,13.98
2018-03-06T16:45:48.402Z,13.91
2018-03-06T16:47:49.855Z,13.84
2018-03-06T16:49:51.280Z,13.73
2018-03-06T16:51:52.708Z,13.67
2018-03-06T16:53:54.337Z,13.65
2018-03-06T16:55:57.025Z,13.58
2018-03-06T16:58:00.430Z,13.54
2018-03-06T17:00:03.480Z,13.49
2018-03-06T17:02:06.758Z,13.54
2018-03-06T17:04:08.445Z,13.47
2018-03-06T17:06:10.863Z,13.43
2018-03-06T17:08:13.447Z,13.32
2018-03-06T17:10:15.173Z,13.29
2018-03-06T17:12:17.344Z,13.04
2018-03-06T17:14:18.973Z,13.06
2018-03-06T17:16:20.938Z,12.92
2018-03-06T17:18:22.408Z,13.04
2018-03-06T17:20:24.098Z,12.89
2018-03-06T17:22:25.509Z,12.89
2018-03-06T17:24:27.025Z,12.95
2018-03-06T17:26:28.480Z,12.85
2018-03-06T17:28:30.025Z,12.81
2018-03-06T17:30:31.485Z,12.87
2018-03-06T17:32:33.013Z,12.88
2018-03-06T17:34:34.533Z,12.85
2018-03-06T17:36:36.194Z,12.78
2018-03-06T17:38:37.775Z,12.82
2018-03-06T17:40:39.464Z,12.69
2018-03-06T17:42:40.990Z,12.64
2018-03-06T17:44:42.482Z,12.57
2018-03-06T17:46:43.964Z,12.54
2018-03-06T17:48:45.468Z,12.51
2018-03-06T17:50:46.977Z,12.52
2018-03-06T17:52:48.397Z,12.60
2018-03-06T17:54:49.864Z,12.52
2018-03-06T17:56:51.393Z,12.51
2018-03-06T17:58:53.515Z,12.48
2018-03-06T18:00:55.230Z,12.52
2018-03-06T18:02:57.242Z,12.54
2018-03-06T18:04:58.952Z,12.48
2018-03-06T18:07:00.442Z,12.48
2018-03-06T18:09:02.051Z,12.52
2018-03-06T18:11:03.499Z,12.45
2018-03-06T18:13:05.348Z,12.34
2018-03-06T18:15:06.908Z,12.26
2018-03-06T18:17:08.429Z,12.38
2018-03-06T18:19:11.816Z,12.33
2018-03-06T18:21:14.358Z,12.20
2018-03-06T18:23:16.159Z,12.15
2018-03-06T18:25:17.743Z,12.11
2018-03-06T18:27:19.230Z,12.02
2018-03-06T18:29:20.762Z,12.02
2018-03-06T18:31:23.830Z,11.96
2018-03-06T18:33:26.035Z,11.93
2018-03-06T18:35:28.542Z,11.89
2018-03-06T18:37:30.226Z,11.93
2018-03-06T18:39:31.834Z,11.74
2018-03-06T18:41:33.557Z,11.77
2018-03-06T18:43:35.180Z,11.70
2018-03-06T18:45:36.686Z,11.59
2018-03-06T18:47:38.155Z,11.44
2018-03-06T18:49:39.653Z,11.47
2018-03-06T18:51:41.738Z,11.47
2018-03-06T18:53:43.450Z,11.41
2018-03-06T18:55:45.088Z,11.47
2018-03-06T18:57:46.696Z,11.38
2018-03-06T18:59:48.252Z,11.29
2018-03-06T19:01:51.024Z,11.35
2018-03-06T19:03:52.555Z,11.46
2018-03-06T19:05:54.264Z,11.47
2018-03-06T19:07:56.043Z,11.50
2018-03-06T19:09:59.037Z,11.34
2018-03-06T19:12:02.187Z,11.31
2018-03-06T19:14:05.195Z,11.31
2018-03-06T19:16:10.526Z,11.31
2018-03-06T19:18:12.999Z,11.35
2018-03-06T19:20:15.222Z,11.52
2018-03-06T19:22:20.262Z,11.70
2018-03-06T19:24:23.820Z,11.62
2018-03-06T19:26:26.589Z,11.72
2018-03-06T19:28:29.229Z,11.77
2018-03-06T19:30:31.753Z,11.78
2018-03-06T19:32:35.946Z,11.74
2018-03-06T19:34:40.687Z,11.75
2018-03-06T19:36:42.410Z,11.77
2018-03-06T19:38:45.635Z,11.96
2018-03-06T19:40:49.824Z,11.93
2018-03-06T19:42:52.695Z,11.83
2018-03-06T19:44:56.686Z,11.93
2018-03-06T19:46:57.924Z,11.89
2018-03-06T19:49:02.897Z,11.89
2018-03-06T19:51:07.087Z,11.93
2018-03-06T19:53:10.694Z,11.90
2018-03-06T19:55:13.395Z,11.74
2018-03-06T19:57:18.829Z,11.82
2018-03-06T19:59:23.689Z,11.70
2018-03-06T20:01:26.551Z,11.74
2018-03-06T20:03:31.973Z,11.68
2018-03-06T20:05:39.191Z,11.77
2018-03-06T20:07:44.330Z,11.71
2018-03-06T20:09:48.692Z,11.72
2018-03-06T20:11:53.449Z,11.67
2018-03-06T20:13:56.287Z,11.65
2018-03-06T20:16:01.226Z,11.67
2018-03-06T20:18:05.328Z,11.56
2018-03-06T20:20:08.351Z,11.54
2018-03-06T20:22:11.580Z,11.56
2018-03-06T20:24:18.693Z,11.38
2018-03-06T20:26:20.846Z,11.44
2018-03-06T20:28:25.900Z,11.47
2018-03-06T20:30:30.875Z,11.35
2018-03-06T20:32:36.053Z,11.31
2018-03-06T20:34:41.192Z,11.32
2018-03-06T20:36:42.597Z,11.28
2018-03-06T20:38:45.019Z,11.32
2018-03-06T20:40:49.598Z,11.34
2018-03-06T20:42:52.009Z,11.32
2018-03-06T20:44:55.768Z,11.39
2018-03-06T20:46:59.890Z,11.32
2018-03-06T20:49:03.695Z,11.44
2018-03-06T20:51:07.278Z,11.32
2018-03-06T20:53:11.886Z,11.39
2018-03-06T20:55:16.086Z,11.31
2018-03-06T20:57:19.129Z,11.36
2018-03-06T20:59:21.713Z,11.28
2018-03-06T21:01:27.698Z,11.20
2018-03-06T21:03:30.909Z,10.71
2018-03-06T21:05:36.197Z,10.37
2018-03-06T21:07:37.829Z,10.36
2018-03-06T21:09:39.643Z,10.51
2018-03-06T21:11:42.560Z,10.58
2018-03-06T21:13:44.347Z,10.60
2018-03-06T21:15:46.719Z,10.66
2018-03-06T21:17:48.419Z,10.68
2018-03-06T21:19:50.159Z,10.59
2018-03-06T21:21:51.847Z,10.60
2018-03-06T21:23:53.491Z,10.62
2018-03-06T21:25:55.220Z,10.65
2018-03-06T21:27:56.970Z,10.60
2018-03-06T21:29:58.664Z,10.58
2018-03-06T21:32:00.394Z,10.70
2018-03-06T21:34:02.181Z,10.62
2018-03-06T21:36:03.935Z,10.66
2018-03-06T21:38:05.641Z,10.63
2018-03-06T21:40:07.416Z,10.68
2018-03-06T21:42:09.493Z,10.71
2018-03-06T21:44:11.528Z,10.65
2018-03-06T21:46:13.576Z,10.58
2018-03-06T21:48:15.273Z,10.56
2018-03-06T21:50:20.385Z,10.59
2018-03-06T21:52:22.432Z,10.60
2018-03-06T21:54:24.141Z,10.58
2018-03-06T21:56:27.615Z,10.51
2018-03-06T21:58:29.543Z,10.53
2018-03-06T22:00:31.178Z,10.47
2018-03-06T22:02:32.972Z,10.51
2018-03-06T22:04:34.659Z,10.51
2018-03-06T22:06:36.345Z,10.43
2018-03-06T22:08:38.549Z,10.36
2018-03-06T22:10:40.570Z,10.04
2018-03-06T22:12:42.352Z,9.73
2018-03-06T22:14:44.039Z,9.81
2018-03-06T22:16:45.772Z,9.86
2018-03-06T22:18:47.506Z,10.01
2018-03-06T22:20:49.131Z,9.94
2018-03-06T22:22:50.866Z,9.86
2018-03-06T22:24:52.565Z,9.78
2018-03-06T22:26:54.266Z,9.78
2018-03-06T22:28:55.971Z,9.85
2018-03-06T22:30:58.066Z,9.89
2018-03-06T22:33:00.000Z,10.00
2018-03-06T22:35:01.745Z,9.96
2018-03-06T22:37:03.448Z,10.06
2018-03-06T22:39:05.131Z,9.91
2018-03-06T22:41:06.788Z,9.79
2018-03-06T22:43:08.478Z,9.64
2018-03-06T22:45:10.285Z,9.60
2018-03-06T22:47:11.987Z,9.50
2018-03-06T22:49:13.784Z,9.42
2018-03-06T22:51:15.466Z,9.53
2018-03-06T22:53:17.246Z,9.53
2018-03-06T22:55:19.240Z,9.60
2018-03-06T22:57:21.012Z,9.64
2018-03-06T22:59:22.727Z,9.58
2018-03-06T23:01:24.803Z,9.50
2018-03-06T23:03:26.597Z,9.48
2018-03-06T23:05:28.282Z,9.45
2018-03-06T23:07:30.189Z,9.58
2018-03-06T23:09:32.161Z,9.66
2018-03-06T23:11:34.170Z,9.76
2018-03-06T23:13:35.906Z,9.79
2018-03-06T23:15:37.709Z,9.78
2018-03-06T23:17:39.422Z,9.70
2018-03-06T23:19:41.049Z,9.67
2018-03-06T23:21:42.769Z,9.58
2018-03-06T23:23:44.653Z,9.57
2018-03-06T23:25:46.291Z,9.45
2018-03-06T23:27:48.055Z,9.43
2018-03-06T23:29:49.684Z,9.63
2018-03-06T23:31:51.502Z,9.58
2018-03-06T23:33:53.441Z,9.70
2018-03-06T23:35:55.074Z,9.71
2018-03-06T23:37:56.809Z,9.68
2018-03-06T23:39:58.580Z,9.68
2018-03-06T23:42:00.387Z,9.70
2018-03-06T23:44:02.131Z,9.60
2018-03-06T23:46:04.157Z,9.56
2018-03-06T23:48:06.186Z,9.46
2018-03-06T23:50:08.172Z,9.25
2018-03-06T23:52:09.878Z,9.40
2018-03-06T23:54:11.588Z,9.28
2018-03-06T23:56:13.237Z,9.46
2018-03-06T23:58:15.064Z,9.45
